Time;durP1;ratioP1;P1;durP2;ratioP2;P2;SDS_P1;SDS_P2;PMS_P1;PMS_P2;Temp;Humidity;BMP_temperature;BMP_pressure;BME280_temperature;BME280_humidity;BME280_pressure;Samples;Min_cycle;Max_cycle;Signal;HPM_P1;HPM_P2
2021/08/10 00:02:10;;;;;;;19.42;16.02;;;;;;;;;;5001023;28;20104;-63
2021/08/10 00:04:35;;;;;;;29.45;20.80;;;;;;;;;;5001635;28;20041;-63
2021/08/10 00:07:01;;;;;;;20.17;17.95;;;;;;;;;;5000541;28;20117;-63
2021/08/10 00:09:26;;;;;;;19.50;17.45;;;;;;;;;;5002547;28;20059;-63
2021/08/10 00:11:51;;;;;;;21.48;14.65;;;;;;;;;;5010089;28;20048;-63
2021/08/10 00:14:16;;;;;;;29.77;16.20;;;;;;;;;;4999181;28;20084;-64
2021/08/10 00:16:42;;;;;;;21.50;12.35;;;;;;;;;;5002668;28;20031;-65
2021/08/10 00:19:08;;;;;;;30.17;18.33;;;;;;;;;;5001513;28;20057;-63
2021/08/10 00:21:33;;;;;;;16.65;12.52;;;;;;;;;;5001237;28;20669;-63
2021/08/10 00:23:59;;;;;;;27.40;22.40;;;;;;;;;;5001119;28;20022;-63
2021/08/10 00:26:24;;;;;;;19.55;14.93;;;;;;;;;;5007972;28;20411;-63
2021/08/10 00:28:49;;;;;;;21.45;13.07;;;;;;;;;;5001101;28;20022;-63
2021/08/10 00:31:14;;;;;;;16.27;11.40;;;;;;;;;;5003691;28;20038;-64
2021/08/10 00:33:39;;;;;;;28.30;14.18;;;;;;;;;;5001856;28;20026;-64
2021/08/10 00:36:05;;;;;;;20.50;14.98;;;;;;;;;;5000943;28;20045;-64
2021/08/10 00:38:30;;;;;;;18.88;12.68;;;;;;;;;;5001436;28;20340;-64
2021/08/10 00:40:56;;;;;;;17.50;9.95;;;;;;;;;;5001477;28;20033;-64
2021/08/10 00:43:28;;;;;;;14.73;11.30;;;;;;;;;;5001128;28;20081;-64
2021/08/10 00:45:53;;;;;;;17.40;9.82;;;;;;;;;;5001306;28;20395;-64
2021/08/10 00:48:19;;;;;;;20.20;10.23;;;;;;;;;;5000354;28;20088;-64
2021/08/10 00:50:45;;;;;;;18.10;9.85;;;;;;;;;;5001659;28;20033;-64
2021/08/10 00:53:10;;;;;;;15.35;8.32;;;;;;;;;;4999093;28;20037;-64
2021/08/10 00:55:35;;;;;;;18.35;8.65;;;;;;;;;;4999211;28;20025;-64
2021/08/10 00:58:01;;;;;;;20.00;11.20;;;;;;;;;;5000412;28;20026;-64
2021/08/10 01:00:26;;;;;;;19.95;11.10;;;;;;;;;;5000060;28;20461;-64
2021/08/10 01:02:51;;;;;;;23.02;12.45;;;;;;;;;;5000982;28;20064;-64
2021/08/10 01:05:16;;;;;;;17.55;12.30;;;;;;;;;;5001534;28;20045;-64
2021/08/10 01:07:50;;;;;;;16.85;8.20;;;;;;;;;;5000060;28;20058;-64
2021/08/10 01:10:15;;;;;;;16.25;8.52;;;;;;;;;;5001984;28;20040;-64
2021/08/10 01:12:40;;;;;;;17.00;8.60;;;;;;;;;;4999289;28;20022;-64
2021/08/10 01:15:13;;;;;;;20.92;9.90;;;;;;;;;;5003006;28;20032;-64
2021/08/10 01:17:45;;;;;;;15.27;8.05;;;;;;;;;;5000495;28;20387;-64
2021/08/10 01:20:29;;;;;;;16.20;8.07;;;;;;;;;;5002123;28;20764;-64
2021/08/10 01:22:55;;;;;;;16.52;8.88;;;;;;;;;;5001396;28;20030;-64
2021/08/10 01:25:39;;;;;;;19.38;15.05;;;;;;;;;;5000407;28;20498;-64
2021/08/10 01:28:07;;;;;;;16.13;12.13;;;;;;;;;;4998742;28;20022;-64
2021/08/10 01:30:37;;;;;;;16.98;8.73;;;;;;;;;;5001707;28;20022;-64
2021/08/10 01:33:03;;;;;;;16.05;8.73;;;;;;;;;;5001604;28;20369;-64
2021/08/10 01:35:29;;;;;;;20.80;9.43;;;;;;;;;;4999261;28;20026;-64
2021/08/10 01:37:55;;;;;;;20.08;10.15;;;;;;;;;;5000261;28;20115;-64
2021/08/10 01:40:23;;;;;;;16.70;10.48;;;;;;;;;;4996046;28;20026;-64
2021/08/10 01:42:49;;;;;;;15.95;8.95;;;;;;;;;;5001067;28;20391;-64
2021/08/10 01:45:15;;;;;;;26.33;12.00;;;;;;;;;;4999856;28;20120;-64
2021/08/10 01:47:43;;;;;;;12.15;6.80;;;;;;;;;;5001073;28;20481;-64
2021/08/10 01:50:08;;;;;;;16.27;8.05;;;;;;;;;;4999007;28;20022;-64
2021/08/10 01:52:34;;;;;;;12.88;6.78;;;;;;;;;;4999851;28;20083;-64
2021/08/10 01:55:00;;;;;;;16.42;7.43;;;;;;;;;;4998515;28;20026;-64
2021/08/10 01:57:26;;;;;;;13.20;6.95;;;;;;;;;;4998855;28;20129;-65
2021/08/10 01:59:52;;;;;;;16.45;7.10;;;;;;;;;;4998500;28;20022;-65
2021/08/10 02:02:17;;;;;;;22.52;10.45;;;;;;;;;;4997202;28;20022;-65
2021/08/10 02:04:44;;;;;;;20.50;8.98;;;;;;;;;;4997498;28;20395;-65
2021/08/10 02:07:10;;;;;;;17.23;8.35;;;;;;;;;;4999110;28;20321;-65
2021/08/10 02:09:37;;;;;;;17.63;8.10;;;;;;;;;;4999543;28;20482;-65
2021/08/10 02:12:02;;;;;;;35.20;13.68;;;;;;;;;;4998854;28;20719;-65
2021/08/10 02:14:28;;;;;;;13.60;9.95;;;;;;;;;;5000007;28;20049;-65
2021/08/10 02:17:13;;;;;;;11.65;6.30;;;;;;;;;;4999751;28;20032;-65
2021/08/10 02:19:38;;;;;;;13.35;6.40;;;;;;;;;;5000289;28;20053;-65
2021/08/10 02:22:11;;;;;;;15.07;8.43;;;;;;;;;;4999329;28;20415;-65
2021/08/10 02:24:38;;;;;;;15.35;7.18;;;;;;;;;;5001070;28;20032;-66
2021/08/10 02:27:06;;;;;;;14.88;7.38;;;;;;;;;;5001302;28;20028;-66
2021/08/10 02:29:36;;;;;;;13.32;6.72;;;;;;;;;;5001441;28;20692;-66
2021/08/10 02:32:03;;;;;;;21.52;11.20;;;;;;;;;;5000235;28;20087;-66
2021/08/10 02:34:29;;;;;;;17.02;10.02;;;;;;;;;;5001130;28;20037;-66
2021/08/10 02:36:56;;;;;;;88.40;83.70;;;;;;;;;;4999648;28;20026;-66
2021/08/10 02:39:22;;;;;;;141.80;135.30;;;;;;;;;;4999526;28;20030;-66
2021/08/10 02:41:48;;;;;;;65.90;62.47;;;;;;;;;;4998719;28;20066;-66
2021/08/10 02:44:14;;;;;;;115.60;109.85;;;;;;;;;;4999141;28;20047;-66
2021/08/10 02:46:39;;;;;;;215.50;205.80;;;;;;;;;;5000661;28;20120;-66
2021/08/10 02:49:07;;;;;;;91.15;85.60;;;;;;;;;;4996313;28;20026;-66
2021/08/10 02:51:32;;;;;;;95.28;90.43;;;;;;;;;;4997087;28;20033;-66
2021/08/10 02:53:59;;;;;;;238.68;227.55;;;;;;;;;;4997343;28;20026;-66
2021/08/10 02:56:27;;;;;;;137.43;131.18;;;;;;;;;;5000606;28;20026;-66
2021/08/10 02:59:15;;;;;;;32.13;29.55;;;;;;;;;;4999125;28;20351;-67
2021/08/10 03:01:45;;;;;;;59.88;56.50;;;;;;;;;;5007099;28;20022;-66
2021/08/10 03:04:10;;;;;;;54.65;51.15;;;;;;;;;;5000858;28;20050;-66
2021/08/10 03:06:36;;;;;;;53.92;50.78;;;;;;;;;;4998872;28;20446;-66
2021/08/10 03:09:02;;;;;;;46.38;42.88;;;;;;;;;;4999512;28;20029;-65
2021/08/10 03:11:29;;;;;;;231.88;221.68;;;;;;;;;;5001689;28;20511;-66
2021/08/10 03:13:55;;;;;;;65.72;62.10;;;;;;;;;;5000264;28;20377;-64
2021/08/10 03:16:23;;;;;;;483.38;457.20;;;;;;;;;;4999905;28;20030;-65
2021/08/10 03:18:50;;;;;;;357.42;339.20;;;;;;;;;;4999233;28;20366;-65
2021/08/10 03:21:16;;;;;;;419.73;398.38;;;;;;;;;;4999560;28;20022;-65
2021/08/10 03:23:41;;;;;;;405.27;384.05;;;;;;;;;;4998802;28;20021;-65
2021/08/10 03:26:08;;;;;;;378.25;358.85;;;;;;;;;;5006387;28;20018;-64
2021/08/10 03:28:33;;;;;;;326.20;310.13;;;;;;;;;;5001895;28;20022;-64
2021/08/10 03:30:59;;;;;;;468.67;444.25;;;;;;;;;;4999703;28;20461;-64
2021/08/10 03:33:26;;;;;;;15.77;7.55;;;;;;;;;;5000088;28;20184;-66
2021/08/10 03:35:51;;;;;;;14.15;6.65;;;;;;;;;;5000832;28;20022;-65
2021/08/10 03:38:17;;;;;;;13.35;6.40;;;;;;;;;;4998804;28;20272;-65
2021/08/10 03:40:43;;;;;;;11.60;6.10;;;;;;;;;;4998184;28;20022;-66
2021/08/10 03:43:08;;;;;;;184.02;175.68;;;;;;;;;;5000171;28;20288;-66
2021/08/10 03:45:34;;;;;;;14.85;7.18;;;;;;;;;;4999107;28;20026;-66
2021/08/10 03:47:59;;;;;;;71.10;67.15;;;;;;;;;;5001886;28;20018;-66
2021/08/10 03:50:25;;;;;;;34.47;31.60;;;;;;;;;;4999606;28;20026;-66
2021/08/10 03:52:50;;;;;;;22.92;20.40;;;;;;;;;;5000067;28;20045;-66
2021/08/10 03:55:16;;;;;;;21.25;19.35;;;;;;;;;;5000126;28;20760;-66
2021/08/10 03:57:43;;;;;;;15.93;10.40;;;;;;;;;;5002088;28;20053;-65
2021/08/10 04:00:09;;;;;;;72.25;66.97;;;;;;;;;;5000615;28;20022;-66
2021/08/10 04:02:35;;;;;;;20.10;13.57;;;;;;;;;;5005388;28;20081;-65
2021/08/10 04:05:00;;;;;;;31.25;29.23;;;;;;;;;;5003561;28;20367;-66
2021/08/10 04:07:27;;;;;;;15.15;10.63;;;;;;;;;;5003035;28;20450;-66
2021/08/10 04:09:53;;;;;;;117.97;112.25;;;;;;;;;;5001254;28;20026;-66
2021/08/10 04:12:19;;;;;;;14.35;7.07;;;;;;;;;;5002659;28;20299;-66
2021/08/10 04:14:44;;;;;;;15.77;7.55;;;;;;;;;;5001560;28;20326;-65
2021/08/10 04:17:11;;;;;;;21.23;9.43;;;;;;;;;;5001676;28;20162;-65
2021/08/10 04:19:38;;;;;;;15.15;7.45;;;;;;;;;;5002763;28;20044;-65
2021/08/10 04:22:04;;;;;;;11.02;5.80;;;;;;;;;;5003704;28;20021;-65
2021/08/10 04:24:30;;;;;;;16.02;8.35;;;;;;;;;;5005873;28;20025;-65
2021/08/10 04:26:55;;;;;;;21.65;13.02;;;;;;;;;;5002912;28;20409;-65
2021/08/10 04:29:21;;;;;;;26.02;23.45;;;;;;;;;;5001492;28;20105;-64
2021/08/10 04:31:46;;;;;;;52.35;48.83;;;;;;;;;;5001662;28;20040;-65
2021/08/10 04:34:11;;;;;;;65.10;61.47;;;;;;;;;;5003722;28;20026;-65
2021/08/10 04:36:37;;;;;;;218.02;208.10;;;;;;;;;;5001479;28;20026;-66
2021/08/10 04:39:02;;;;;;;76.57;72.07;;;;;;;;;;5005125;28;20642;-65
2021/08/10 04:41:28;;;;;;;84.68;80.43;;;;;;;;;;5001351;28;20037;-66
2021/08/10 04:43:53;;;;;;;81.63;77.40;;;;;;;;;;5004199;28;20053;-65
2021/08/10 04:46:19;;;;;;;176.88;168.82;;;;;;;;;;5001833;28;20347;-66
2021/08/10 04:48:45;;;;;;;105.80;100.30;;;;;;;;;;5008961;28;20030;-65
2021/08/10 04:51:10;;;;;;;79.10;74.63;;;;;;;;;;5000356;28;20454;-66
2021/08/10 04:53:35;;;;;;;79.00;74.15;;;;;;;;;;5001628;28;20057;-66
2021/08/10 04:56:01;;;;;;;57.65;54.05;;;;;;;;;;5002748;28;20291;-65
2021/08/10 04:58:26;;;;;;;83.53;77.80;;;;;;;;;;5004131;28;20248;-66
2021/08/10 05:00:51;;;;;;;57.47;53.50;;;;;;;;;;5000005;28;20022;-66
2021/08/10 05:03:16;;;;;;;68.85;63.80;;;;;;;;;;5003765;28;20054;-65
2021/08/10 05:05:42;;;;;;;79.90;75.63;;;;;;;;;;5001983;28;20022;-67
2021/08/10 05:08:07;;;;;;;103.32;97.75;;;;;;;;;;5001558;28;20558;-65
2021/08/10 05:10:32;;;;;;;112.80;105.43;;;;;;;;;;4999543;28;20028;-66
2021/08/10 05:12:58;;;;;;;97.63;92.18;;;;;;;;;;5000323;28;20049;-65
2021/08/10 05:15:23;;;;;;;94.32;89.57;;;;;;;;;;5002067;28;20041;-66
2021/08/10 05:17:48;;;;;;;37.47;34.65;;;;;;;;;;4999646;28;20260;-64
2021/08/10 05:20:13;;;;;;;62.63;58.53;;;;;;;;;;4997696;28;20080;-65
2021/08/10 05:22:41;;;;;;;65.43;61.25;;;;;;;;;;4999653;28;20488;-65
2021/08/10 05:25:06;;;;;;;60.08;55.85;;;;;;;;;;4999758;28;20033;-65
2021/08/10 05:27:31;;;;;;;85.55;80.82;;;;;;;;;;4999527;28;20014;-65
2021/08/10 05:29:57;;;;;;;58.00;53.65;;;;;;;;;;4997079;28;20028;-65
2021/08/10 05:32:22;;;;;;;88.25;82.35;;;;;;;;;;4999773;28;20205;-65
2021/08/10 05:34:47;;;;;;;59.83;55.35;;;;;;;;;;5001341;28;20086;-65
2021/08/10 05:37:13;;;;;;;84.25;79.50;;;;;;;;;;5005916;28;20032;-66
2021/08/10 05:39:38;;;;;;;56.33;52.67;;;;;;;;;;5003095;28;20030;-65
2021/08/10 05:42:03;;;;;;;37.60;34.85;;;;;;;;;;5001826;28;20156;-65
2021/08/10 05:44:29;;;;;;;61.88;57.85;;;;;;;;;;5003817;28;20018;-65
2021/08/10 05:46:55;;;;;;;29.58;26.80;;;;;;;;;;5001791;28;20014;-65
2021/08/10 05:49:20;;;;;;;29.60;26.80;;;;;;;;;;5000373;28;20034;-65
2021/08/10 05:51:45;;;;;;;32.60;29.95;;;;;;;;;;5001411;28;20084;-65
2021/08/10 05:54:13;;;;;;;24.85;22.33;;;;;;;;;;5001398;28;20144;-65
2021/08/10 05:56:38;;;;;;;25.70;23.50;;;;;;;;;;5000693;28;20034;-66
2021/08/10 05:59:04;;;;;;;37.20;34.42;;;;;;;;;;5004067;28;20041;-65
2021/08/10 06:01:29;;;;;;;23.48;21.13;;;;;;;;;;5000125;28;20023;-65
2021/08/10 06:03:54;;;;;;;26.65;24.13;;;;;;;;;;5001239;28;20124;-65
2021/08/10 06:06:20;;;;;;;21.63;19.52;;;;;;;;;;5001227;28;20029;-66
2021/08/10 06:08:45;;;;;;;20.88;18.98;;;;;;;;;;5000266;28;20040;-65
2021/08/10 06:11:10;;;;;;;18.05;16.23;;;;;;;;;;5001636;28;20018;-66
2021/08/10 06:13:36;;;;;;;31.58;28.80;;;;;;;;;;5001222;28;20038;-65
2021/08/10 06:16:01;;;;;;;23.13;14.40;;;;;;;;;;5000089;28;20029;-66
2021/08/10 06:18:27;;;;;;;14.43;11.13;;;;;;;;;;5001797;28;20021;-65
2021/08/10 06:20:52;;;;;;;16.33;13.75;;;;;;;;;;5000234;28;20455;-65
2021/08/10 06:23:17;;;;;;;22.50;11.05;;;;;;;;;;5000657;28;20026;-65
2021/08/10 06:25:43;;;;;;;13.15;7.40;;;;;;;;;;5001249;28;20509;-65
2021/08/10 06:28:08;;;;;;;15.57;9.32;;;;;;;;;;5002885;28;20029;-65
2021/08/10 06:30:33;;;;;;;18.80;10.43;;;;;;;;;;5000255;28;20063;-65
2021/08/10 06:32:58;;;;;;;25.23;12.82;;;;;;;;;;5003209;28;20049;-66
2021/08/10 06:35:24;;;;;;;18.13;12.35;;;;;;;;;;5002104;28;20144;-65
2021/08/10 06:37:49;;;;;;;22.45;20.45;;;;;;;;;;5002101;28;20034;-66
2021/08/10 06:40:14;;;;;;;25.17;22.88;;;;;;;;;;5002827;28;20056;-63
2021/08/10 06:42:40;;;;;;;26.55;24.30;;;;;;;;;;4998778;28;20022;-65
2021/08/10 06:45:05;;;;;;;31.00;28.50;;;;;;;;;;4999639;28;20021;-64
2021/08/10 06:47:30;;;;;;;24.75;22.35;;;;;;;;;;5003374;28;20125;-65
2021/08/10 06:49:56;;;;;;;18.58;16.52;;;;;;;;;;5000968;28;20022;-63
2021/08/10 06:52:21;;;;;;;17.30;13.35;;;;;;;;;;5002537;28;20368;-63
2021/08/10 06:54:46;;;;;;;23.15;20.98;;;;;;;;;;5001638;28;20088;-63
2021/08/10 06:57:11;;;;;;;33.05;29.60;;;;;;;;;;5000365;28;20442;-64
2021/08/10 06:59:38;;;;;;;29.25;26.20;;;;;;;;;;4999570;28;20029;-64
2021/08/10 07:02:03;;;;;;;39.88;36.63;;;;;;;;;;5002354;28;20057;-63
2021/08/10 07:04:29;;;;;;;61.65;57.50;;;;;;;;;;5001577;28;20078;-63
2021/08/10 07:06:54;;;;;;;49.75;46.35;;;;;;;;;;5007829;28;20060;-64
2021/08/10 07:09:19;;;;;;;59.20;55.38;;;;;;;;;;5001979;28;20026;-65
2021/08/10 07:11:45;;;;;;;40.88;38.33;;;;;;;;;;5000268;28;20037;-63
2021/08/10 07:14:13;;;;;;;49.88;46.65;;;;;;;;;;5000700;28;20275;-63
2021/08/10 07:16:39;;;;;;;47.72;44.95;;;;;;;;;;5000836;28;20022;-63
2021/08/10 07:19:04;;;;;;;69.63;64.97;;;;;;;;;;5001163;28;20045;-63
2021/08/10 07:21:30;;;;;;;47.38;43.92;;;;;;;;;;5001355;28;20026;-63
2021/08/10 07:23:55;;;;;;;57.58;53.45;;;;;;;;;;5001155;28;20026;-63
2021/08/10 07:26:20;;;;;;;42.25;39.55;;;;;;;;;;4999880;28;20340;-63
2021/08/10 07:28:46;;;;;;;32.38;29.27;;;;;;;;;;5000067;28;20025;-63
2021/08/10 07:31:11;;;;;;;97.68;91.15;;;;;;;;;;5006268;28;20029;-63
2021/08/10 07:33:36;;;;;;;30.17;27.77;;;;;;;;;;5005570;28;20026;-63
2021/08/10 07:36:02;;;;;;;139.45;132.25;;;;;;;;;;5005191;28;20149;-63
2021/08/10 07:38:27;;;;;;;158.60;151.13;;;;;;;;;;5005489;28;20022;-64
2021/08/10 07:40:53;;;;;;;203.30;193.52;;;;;;;;;;5004147;28;20054;-64
2021/08/10 07:43:18;;;;;;;161.25;153.60;;;;;;;;;;5006036;28;20367;-64
2021/08/10 07:45:43;;;;;;;166.80;158.88;;;;;;;;;;5002762;28;20022;-64
2021/08/10 07:48:09;;;;;;;90.80;86.28;;;;;;;;;;5004634;28;20046;-64
2021/08/10 07:50:34;;;;;;;34.22;31.48;;;;;;;;;;5004161;28;20315;-64
2021/08/10 07:52:59;;;;;;;138.25;131.05;;;;;;;;;;5003028;28;20026;-64
2021/08/10 07:55:25;;;;;;;177.88;168.57;;;;;;;;;;5004161;28;20181;-64
2021/08/10 07:57:50;;;;;;;228.13;217.18;;;;;;;;;;5005270;28;20030;-64
2021/08/10 08:00:15;;;;;;;183.93;175.07;;;;;;;;;;5004771;28;20034;-64
2021/08/10 08:02:40;;;;;;;258.50;246.18;;;;;;;;;;5005104;28;20349;-64
2021/08/10 08:05:06;;;;;;;229.95;218.68;;;;;;;;;;5001620;28;20018;-64
2021/08/10 08:07:32;;;;;;;251.57;239.45;;;;;;;;;;5002315;28;20438;-64
2021/08/10 08:09:57;;;;;;;261.77;248.73;;;;;;;;;;5003146;28;20028;-64
2021/08/10 08:12:22;;;;;;;305.52;290.83;;;;;;;;;;5005073;28;20030;-64
2021/08/10 08:14:48;;;;;;;310.73;295.35;;;;;;;;;;5003659;28;20152;-64
2021/08/10 08:17:13;;;;;;;331.67;315.05;;;;;;;;;;5004516;28;20049;-64
2021/08/10 08:19:38;;;;;;;259.42;246.90;;;;;;;;;;5006112;28;20062;-64
2021/08/10 08:22:03;;;;;;;373.20;353.80;;;;;;;;;;5005372;28;20350;-64
2021/08/10 08:24:29;;;;;;;349.10;330.38;;;;;;;;;;5004705;28;20307;-64
2021/08/10 08:26:54;;;;;;;334.02;317.33;;;;;;;;;;5004786;28;20354;-64
2021/08/10 08:29:19;;;;;;;418.17;395.75;;;;;;;;;;5003032;28;20038;-64
2021/08/10 08:31:45;;;;;;;416.10;394.25;;;;;;;;;;5002853;28;20081;-64
2021/08/10 08:34:10;;;;;;;401.73;380.52;;;;;;;;;;5002025;28;20031;-65
2021/08/10 08:36:35;;;;;;;397.58;376.77;;;;;;;;;;5004190;28;20128;-64
2021/08/10 08:39:00;;;;;;;470.17;443.83;;;;;;;;;;5004760;28;20279;-64
2021/08/10 08:41:26;;;;;;;516.53;486.90;;;;;;;;;;5001563;28;20034;-64
2021/08/10 08:43:51;;;;;;;541.78;510.58;;;;;;;;;;5004826;28;20022;-64
2021/08/10 08:46:16;;;;;;;533.42;502.75;;;;;;;;;;5003423;28;20530;-64
2021/08/10 08:48:44;;;;;;;556.25;523.72;;;;;;;;;;5003415;28;20026;-65
2021/08/10 08:51:10;;;;;;;565.38;532.22;;;;;;;;;;5003184;28;20025;-64
2021/08/10 08:53:36;;;;;;;601.75;564.83;;;;;;;;;;5003041;28;20041;-64
2021/08/10 08:56:01;;;;;;;613.80;576.33;;;;;;;;;;5003069;28;20773;-63
2021/08/10 08:58:26;;;;;;;616.05;578.58;;;;;;;;;;5002263;28;20036;-63
2021/08/10 09:00:51;;;;;;;629.78;590.88;;;;;;;;;;5001580;28;20721;-63
2021/08/10 09:03:17;;;;;;;707.42;663.50;;;;;;;;;;5000499;28;20114;-63
2021/08/10 09:05:45;;;;;;;701.00;657.20;;;;;;;;;;5004098;28;20044;-64
2021/08/10 09:08:29;;;;;;;695.65;652.63;;;;;;;;;;5000649;28;20015;-64
2021/08/10 09:10:55;;;;;;;703.03;659.53;;;;;;;;;;5000648;28;20041;-64
2021/08/10 09:13:20;;;;;;;682.33;639.95;;;;;;;;;;5002695;28;20025;-64
2021/08/10 09:15:46;;;;;;;713.83;669.20;;;;;;;;;;5002281;28;20027;-64
2021/08/10 09:18:13;;;;;;;686.35;643.15;;;;;;;;;;5001053;28;20029;-64
2021/08/10 09:20:39;;;;;;;668.88;626.97;;;;;;;;;;5000825;28;20030;-64
2021/08/10 09:23:04;;;;;;;733.88;688.20;;;;;;;;;;5002962;28;20018;-64
2021/08/10 09:25:31;;;;;;;632.20;593.50;;;;;;;;;;5001380;28;20036;-64
2021/08/10 09:28:03;;;;;;;656.33;615.40;;;;;;;;;;5000655;28;20630;-64
2021/08/10 09:30:29;;;;;;;676.53;634.15;;;;;;;;;;5001244;28;20061;-64
2021/08/10 09:32:55;;;;;;;671.25;629.33;;;;;;;;;;5003188;28;20018;-63
2021/08/10 09:35:21;;;;;;;660.47;619.58;;;;;;;;;;5004407;28;20401;-64
2021/08/10 09:38:05;;;;;;;16.80;13.05;;;;;;;;;;5001394;28;20375;-64
2021/08/10 09:40:43;;;;;;;201.30;190.73;;;;;;;;;;4999880;28;20026;-64
2021/08/10 09:43:18;;;;;;;388.90;368.83;;;;;;;;;;5003820;28;20029;-64
2021/08/10 09:45:43;;;;;;;38.92;36.17;;;;;;;;;;5000529;28;20026;-64
2021/08/10 09:48:12;;;;;;;70.45;66.43;;;;;;;;;;5002253;28;20022;-65
2021/08/10 09:50:37;;;;;;;15.32;6.45;;;;;;;;;;5000760;28;20033;-65
2021/08/10 09:53:15;;;;;;;15.30;7.50;;;;;;;;;;5001786;28;20022;-65
2021/08/10 09:55:51;;;;;;;12.63;7.05;;;;;;;;;;4999607;28;20018;-65
2021/08/10 09:58:16;;;;;;;12.20;7.38;;;;;;;;;;5000613;28;20034;-65
2021/08/10 10:00:42;;;;;;;13.32;6.50;;;;;;;;;;5003065;28;20273;-64
2021/08/10 10:03:15;;;;;;;13.15;7.65;;;;;;;;;;5000753;28;20263;-64
2021/08/10 10:05:40;;;;;;;16.33;7.97;;;;;;;;;;5002553;28;20026;-64
2021/08/10 10:08:19;;;;;;;12.95;7.57;;;;;;;;;;5000336;28;20076;-63
2021/08/10 10:10:45;;;;;;;15.88;8.73;;;;;;;;;;5000253;28;20413;-63
2021/08/10 10:13:12;;;;;;;12.55;6.82;;;;;;;;;;5001755;28;20033;-63
2021/08/10 10:15:38;;;;;;;11.05;6.45;;;;;;;;;;5002478;28;20026;-65
2021/08/10 10:18:04;;;;;;;13.18;7.07;;;;;;;;;;5001699;28;20060;-65
2021/08/10 10:20:29;;;;;;;15.57;8.35;;;;;;;;;;5000276;28;20034;-65
2021/08/10 10:22:55;;;;;;;16.00;9.52;;;;;;;;;;5000364;28;20040;-65
2021/08/10 10:25:23;;;;;;;13.25;7.65;;;;;;;;;;4998217;28;20018;-65
2021/08/10 10:27:49;;;;;;;17.13;9.13;;;;;;;;;;5002750;28;20123;-65
2021/08/10 10:30:14;;;;;;;17.27;9.45;;;;;;;;;;4999796;28;20133;-66
2021/08/10 10:32:40;;;;;;;15.07;8.65;;;;;;;;;;4999328;28;20029;-65
2021/08/10 10:35:05;;;;;;;12.63;7.47;;;;;;;;;;5001479;28;20021;-65
2021/08/10 10:37:31;;;;;;;15.98;8.80;;;;;;;;;;5000984;28;20443;-65
2021/08/10 10:39:58;;;;;;;20.48;16.70;;;;;;;;;;5004882;28;20030;-65
2021/08/10 10:42:24;;;;;;;23.00;17.00;;;;;;;;;;5001699;28;20319;-66
2021/08/10 10:44:51;;;;;;;82.90;77.97;;;;;;;;;;5001843;28;20421;-65
2021/08/10 10:47:28;;;;;;;573.80;539.55;;;;;;;;;;4999000;28;20026;-66
2021/08/10 10:49:56;;;;;;;709.92;665.35;;;;;;;;;;5001618;28;20029;-65
2021/08/10 10:52:32;;;;;;;341.17;323.85;;;;;;;;;;5000082;28;20030;-65
2021/08/10 10:54:58;;;;;;;65.63;61.13;;;;;;;;;;5001131;28;20018;-65
2021/08/10 10:57:29;;;;;;;50.60;46.80;;;;;;;;;;4999562;28;20034;-65
2021/08/10 11:00:19;;;;;;;24.00;21.45;;;;;;;;;;5016450;28;20022;-65
2021/08/10 11:03:04;;;;;;;13.73;7.47;;;;;;;;;;4998899;28;20046;-65
2021/08/10 11:05:30;;;;;;;15.90;8.52;;;;;;;;;;5002477;28;20036;-65
2021/08/10 11:07:56;;;;;;;10.27;6.60;;;;;;;;;;4999129;28;20027;-65
2021/08/10 11:10:34;;;;;;;11.93;6.65;;;;;;;;;;4999903;28;20141;-65
2021/08/10 11:12:59;;;;;;;17.42;8.70;;;;;;;;;;4998491;28;20279;-65
2021/08/10 11:15:43;;;;;;;10.68;7.00;;;;;;;;;;4998634;28;20045;-65
2021/08/10 11:18:08;;;;;;;11.07;7.50;;;;;;;;;;4998971;28;20023;-65
2021/08/10 11:20:44;;;;;;;11.43;6.50;;;;;;;;;;5013710;28;20041;-65
2021/08/10 11:23:23;;;;;;;11.90;7.05;;;;;;;;;;4999812;28;20025;-65
2021/08/10 11:26:09;;;;;;;13.02;8.00;;;;;;;;;;4999412;28;20105;-65
2021/08/10 11:28:34;;;;;;;8.57;6.45;;;;;;;;;;4997598;28;20065;-65
2021/08/10 11:31:04;;;;;;;12.25;7.50;;;;;;;;;;5000373;28;20066;-65
2021/08/10 11:33:36;;;;;;;15.82;9.07;;;;;;;;;;5000432;28;20755;-65
2021/08/10 11:36:14;;;;;;;13.20;7.63;;;;;;;;;;5000118;28;20033;-65
2021/08/10 11:38:51;;;;;;;14.38;7.90;;;;;;;;;;4997740;28;20050;-65
2021/08/10 11:41:20;;;;;;;11.65;7.35;;;;;;;;;;4999323;28;20112;-64
2021/08/10 11:43:46;;;;;;;8.13;6.07;;;;;;;;;;4998385;28;20026;-65
2021/08/10 11:46:16;;;;;;;8.93;6.38;;;;;;;;;;5000628;28;20040;-65
2021/08/10 11:48:42;;;;;;;14.85;7.47;;;;;;;;;;4999487;28;20014;-63
2021/08/10 11:51:14;;;;;;;16.20;7.60;;;;;;;;;;4998294;28;20033;-63
2021/08/10 11:53:39;;;;;;;11.05;7.90;;;;;;;;;;4999466;28;20021;-64
2021/08/10 11:56:19;;;;;;;8.75;6.07;;;;;;;;;;4999532;28;20281;-64
2021/08/10 11:58:45;;;;;;;8.70;6.57;;;;;;;;;;5000008;28;20057;-64
2021/08/10 12:01:10;;;;;;;12.20;6.80;;;;;;;;;;4997963;28;20200;-63
2021/08/10 12:03:35;;;;;;;9.98;6.60;;;;;;;;;;4999524;28;20411;-63
2021/08/10 12:06:00;;;;;;;10.50;7.07;;;;;;;;;;5000090;28;20037;-64
2021/08/10 12:08:26;;;;;;;7.65;5.97;;;;;;;;;;4998998;28;20369;-64
2021/08/10 12:10:51;;;;;;;10.52;6.43;;;;;;;;;;5000701;28;20223;-64
2021/08/10 12:13:18;;;;;;;9.35;5.72;;;;;;;;;;4997495;28;20031;-64
2021/08/10 12:15:45;;;;;;;10.75;7.00;;;;;;;;;;5000852;28;20026;-64
2021/08/10 12:18:11;;;;;;;8.60;6.80;;;;;;;;;;5015833;28;20292;-64
2021/08/10 12:20:36;;;;;;;9.82;6.60;;;;;;;;;;5003355;28;20386;-64
2021/08/10 12:23:02;;;;;;;10.18;7.60;;;;;;;;;;5000140;28;20032;-64
2021/08/10 12:25:28;;;;;;;9.20;7.45;;;;;;;;;;5002537;28;20045;-64
2021/08/10 12:28:02;;;;;;;7.68;6.25;;;;;;;;;;5001839;28;20065;-64
2021/08/10 12:30:29;;;;;;;;;;;;;;;;;;5003214;28;20086;-64
2021/08/10 12:33:08;;;;;;;8.05;6.22;;;;;;;;;;5002054;28;19913;-64
2021/08/10 12:35:33;;;;;;;11.98;7.55;;;;;;;;;;5003289;28;20387;-64
2021/08/10 12:37:59;;;;;;;9.98;6.93;;;;;;;;;;5002488;28;20037;-64
2021/08/10 12:40:24;;;;;;;10.00;6.40;;;;;;;;;;5003293;28;20636;-64
2021/08/10 12:42:50;;;;;;;7.30;6.00;;;;;;;;;;4999760;28;20316;-64
2021/08/10 12:45:15;;;;;;;8.55;6.55;;;;;;;;;;5002451;28;20135;-64
2021/08/10 12:47:42;;;;;;;8.98;7.72;;;;;;;;;;5000642;28;20044;-64
2021/08/10 12:50:21;;;;;;;7.47;6.53;;;;;;;;;;5003134;28;20030;-64
2021/08/10 12:52:47;;;;;;;9.15;7.10;;;;;;;;;;5000889;28;20032;-64
2021/08/10 12:55:13;;;;;;;12.55;7.07;;;;;;;;;;5001759;28;20014;-65
2021/08/10 12:57:38;;;;;;;10.07;6.25;;;;;;;;;;5000859;28;20030;-63
2021/08/10 13:00:15;;;;;;;8.40;5.90;;;;;;;;;;5001831;28;20025;-65
2021/08/10 13:02:44;;;;;;;9.63;7.43;;;;;;;;;;5000794;28;20045;-63
2021/08/10 13:05:11;;;;;;;10.15;6.88;;;;;;;;;;4999492;28;20034;-63
2021/08/10 13:07:37;;;;;;;6.53;5.53;;;;;;;;;;5000177;28;20676;-65
2021/08/10 13:10:04;;;;;;;8.82;6.38;;;;;;;;;;4999334;28;20061;-65
2021/08/10 13:12:31;;;;;;;12.07;7.00;;;;;;;;;;5001888;28;20033;-64
2021/08/10 13:14:57;;;;;;;6.57;5.63;;;;;;;;;;5001747;28;20034;-64
2021/08/10 13:17:29;;;;;;;7.72;6.70;;;;;;;;;;5003153;28;20387;-64
2021/08/10 13:20:02;;;;;;;8.15;6.43;;;;;;;;;;5003269;28;20514;-64
2021/08/10 13:22:47;;;;;;;10.13;7.13;;;;;;;;;;4999983;28;20031;-64
2021/08/10 13:25:14;;;;;;;7.30;6.55;;;;;;;;;;5016739;28;20045;-64
2021/08/10 13:27:39;;;;;;;8.00;6.80;;;;;;;;;;5000427;28;20036;-64
2021/08/10 13:30:16;;;;;;;10.68;7.38;;;;;;;;;;5001259;28;20248;-65
2021/08/10 13:32:41;;;;;;;10.65;7.15;;;;;;;;;;5000732;28;20022;-64
2021/08/10 13:35:06;;;;;;;12.23;6.65;;;;;;;;;;5000838;28;20035;-64
2021/08/10 13:37:31;;;;;;;9.70;7.65;;;;;;;;;;5001883;28;20033;-64
2021/08/10 13:39:57;;;;;;;6.07;5.47;;;;;;;;;;5003784;28;20048;-64
2021/08/10 13:42:22;;;;;;;7.63;6.60;;;;;;;;;;5000848;28;20057;-64
2021/08/10 13:44:48;;;;;;;7.32;6.18;;;;;;;;;;4999556;28;20049;-64
2021/08/10 13:47:14;;;;;;;10.48;7.53;;;;;;;;;;4999408;28;20334;-65
2021/08/10 13:49:39;;;;;;;9.45;6.47;;;;;;;;;;4999804;28;20394;-64
2021/08/10 13:52:04;;;;;;;12.30;8.23;;;;;;;;;;4999334;28;20057;-64
2021/08/10 13:54:30;;;;;;;8.65;7.40;;;;;;;;;;4999653;28;20032;-64
2021/08/10 13:56:55;;;;;;;9.90;7.10;;;;;;;;;;5001883;28;20117;-64
2021/08/10 13:59:20;;;;;;;9.02;7.28;;;;;;;;;;5000216;28;20041;-64
2021/08/10 14:01:46;;;;;;;7.13;6.43;;;;;;;;;;4999903;28;20026;-64
2021/08/10 14:04:12;;;;;;;7.30;6.20;;;;;;;;;;4999405;28;20313;-64
2021/08/10 14:06:37;;;;;;;10.93;7.75;;;;;;;;;;4998980;28;20029;-64
2021/08/10 14:09:03;;;;;;;6.40;5.82;;;;;;;;;;5001980;28;20030;-64
2021/08/10 14:11:28;;;;;;;10.55;7.38;;;;;;;;;;4998574;28;20096;-64
2021/08/10 14:13:53;;;;;;;7.15;6.45;;;;;;;;;;4997721;28;20030;-64
2021/08/10 14:16:21;;;;;;;8.48;7.00;;;;;;;;;;5000668;28;20390;-64
2021/08/10 14:18:47;;;;;;;8.15;6.85;;;;;;;;;;4998392;28;20034;-64